CheckWX is a tool to help pilots better visualize weather data.  It is not intended as a substitute for an official pre-flight weather briefing.

06:45:16 UTC

KHFJ METAR
Monett Regional Airport
Monett, Missouri, USA
Current

10 mins ago

KHFJ 210635Z AUTO 09005KT 10SM RA SCT080 OVC110 14/14 A2985 RMK AO2 LTG DSNT NE SE AND W P0003
Observed
May-21 @ 06:35 UTC
Wind
  • 090° at 5 KTS
Visibility
10 SM
Flight Rules
VFR
Conditions
Rain
Cloud Levels
  • Scattered at 8,000' AGL
  • Overcast at 11,000' AGL
Temperature
14°C / 57°F
Dewpoint
14°C / 57°F
Humidity
100%
Altimeter
29.85" Hg
Pressure
1010.82 hPa
Current Rain
0.03"
Previous

30 mins ago

KHFJ 210615Z AUTO 08004KT 10SM -VCTSRA SCT004 SCT046 OVC100 14/14 A2984 RMK AO2 LTG DSNT ALQS P0001
Observed
May-21 @ 06:15 UTC
Wind
  • 080° at 4 KTS
Visibility
10 SM
Flight Rules
VFR
Conditions
Area Thunderstorm, Light Rain
Cloud Levels
  • Scattered at 400' AGL
  • Scattered at 4,600' AGL
  • Overcast at 10,000' AGL
Temperature
14°C / 57°F
Dewpoint
14°C / 57°F
Humidity
100%
Altimeter
29.84" Hg
Pressure
1010.52 hPa
Current Rain
0.01"
Previous

50 mins ago

KHFJ 210555Z AUTO 10006KT 7SM VCTSRA SCT005 BKN080 OVC100 13/13 A2984 RMK AO2 LTG DSNT ALQS P0008
Observed
May-21 @ 05:55 UTC
Wind
  • 100° at 6 KTS
Visibility
7 SM
Flight Rules
VFR
Conditions
Area Thunderstorm, Area Rain
Cloud Levels
  • Scattered at 500' AGL
  • Broken at 8,000' AGL
  • Overcast at 10,000' AGL
Temperature
13°C / 55°F
Dewpoint
13°C / 55°F
Humidity
100%
Altimeter
29.84" Hg
Pressure
1010.52 hPa
Current Rain
0.08"